createdAt,value
2023-07-01T00:02:38.332Z,42.71
2023-07-01T00:05:21.998Z,43.04
2023-07-01T00:08:09.291Z,43.29
2023-07-01T00:10:52.450Z,43.59
2023-07-01T00:13:35.115Z,43.75
2023-07-01T00:16:19.596Z,44.93
2023-07-01T00:18:57.576Z,45.09
2023-07-01T00:21:38.370Z,44.10
2023-07-01T00:24:27.248Z,44.20
2023-07-01T00:27:18.461Z,45.11
2023-07-01T00:30:04.359Z,45.09
2023-07-01T00:32:51.281Z,44.15
2023-07-01T00:35:27.279Z,44.19
2023-07-01T00:38:18.146Z,43.92
2023-07-01T00:41:06.080Z,44.71
2023-07-01T00:43:52.742Z,44.17
2023-07-01T00:46:35.663Z,45.30
2023-07-01T00:52:11.954Z,45.09
2023-07-01T00:55:06.197Z,44.89
2023-07-01T00:57:55.346Z,44.46
2023-07-01T01:00:38.987Z,44.58
2023-07-01T01:03:43.636Z,43.98
2023-07-01T01:06:39.201Z,44.63
2023-07-01T01:09:41.494Z,43.51
2023-07-01T01:12:25.580Z,43.88
2023-07-01T01:15:08.014Z,44.00
2023-07-01T01:17:53.522Z,43.92
2023-07-01T01:20:34.500Z,44.39
2023-07-01T01:23:29.832Z,44.50
2023-07-01T01:26:17.284Z,45.38
2023-07-01T01:29:01.967Z,45.22
2023-07-01T01:31:40.427Z,46.92
2023-07-01T01:34:23.974Z,47.43
2023-07-01T01:37:06.621Z,47.18
2023-07-01T01:39:48.777Z,46.85
2023-07-01T01:42:59.512Z,47.23
2023-07-01T01:45:40.696Z,48.47
2023-07-01T01:48:19.309Z,48.49
2023-07-01T01:51:00.099Z,48.70
2023-07-01T01:53:42.885Z,48.80
2023-07-01T01:56:22.223Z,49.07
2023-07-01T01:58:59.882Z,49.50
2023-07-01T02:01:38.325Z,49.25
2023-07-01T02:04:18.914Z,48.89
2023-07-01T02:07:01.009Z,47.90
2023-07-01T02:09:39.338Z,47.05
2023-07-01T02:12:39.417Z,46.74
2023-07-01T02:18:17.939Z,47.73
2023-07-01T02:20:59.878Z,47.92
2023-07-01T02:23:40.635Z,48.10
2023-07-01T02:26:23.085Z,48.01
2023-07-01T02:29:03.044Z,48.20
2023-07-01T02:31:52.607Z,46.96
2023-07-01T02:34:37.130Z,47.09
2023-07-01T02:37:20.616Z,47.73
2023-07-01T02:39:55.967Z,47.37
2023-07-01T02:42:38.412Z,47.59
2023-07-01T02:45:19.432Z,47.93
2023-07-01T02:48:04.842Z,48.05
2023-07-01T02:50:47.045Z,48.47
2023-07-01T02:53:23.067Z,48.14
2023-07-01T02:56:09.052Z,48.45
2023-07-01T02:58:54.327Z,49.41
2023-07-01T03:01:37.483Z,48.50
2023-07-01T03:04:21.550Z,49.87
2023-07-01T03:07:09.951Z,49.89
2023-07-01T03:10:06.665Z,49.10
2023-07-01T03:12:49.815Z,49.58
2023-07-01T03:15:33.769Z,49.38
2023-07-01T03:18:17.954Z,49.10
2023-07-01T03:21:02.182Z,49.78
2023-07-01T03:23:45.885Z,50.44
2023-07-01T03:26:33.996Z,50.71
2023-07-01T03:29:13.083Z,50.50
2023-07-01T03:31:58.125Z,49.86
2023-07-01T03:34:42.352Z,50.63
2023-07-01T03:37:30.597Z,50.11
2023-07-01T03:40:14.907Z,51.13
2023-07-01T03:43:04.114Z,51.18
2023-07-01T03:45:47.307Z,50.18
2023-07-01T03:48:31.113Z,50.61
2023-07-01T03:51:09.192Z,51.10
2023-07-01T03:53:52.908Z,50.96
2023-07-01T03:56:34.275Z,50.37
2023-07-01T03:59:10.889Z,51.35
2023-07-01T04:02:04.987Z,50.36
2023-07-01T04:04:49.328Z,50.81
2023-07-01T04:07:36.889Z,51.08
2023-07-01T04:10:19.139Z,50.20
2023-07-01T04:12:59.566Z,50.71
2023-07-01T04:15:41.176Z,50.78
2023-07-01T04:18:30.073Z,49.97
2023-07-01T04:21:07.878Z,48.70
2023-07-01T04:23:55.403Z,48.73
2023-07-01T04:26:45.277Z,48.49
2023-07-01T04:29:28.166Z,48.03
2023-07-01T04:32:12.872Z,48.20
2023-07-01T04:34:58.752Z,48.26
2023-07-01T04:37:35.309Z,48.44
2023-07-01T04:40:17.934Z,49.36
2023-07-01T04:43:05.113Z,47.64
2023-07-01T04:45:51.522Z,45.98
2023-07-01T04:48:27.837Z,46.08
2023-07-01T04:51:20.376Z,45.96
2023-07-01T04:53:58.795Z,45.58
2023-07-01T04:56:39.720Z,44.92
2023-07-01T04:59:25.751Z,43.52
2023-07-01T05:02:09.440Z,44.93
2023-07-01T05:04:52.917Z,43.88
2023-07-01T05:07:34.923Z,43.71
2023-07-01T05:10:13.812Z,43.24
2023-07-01T05:13:06.376Z,41.89
2023-07-01T05:15:50.573Z,41.92
2023-07-01T05:18:32.348Z,42.64
2023-07-01T05:21:26.652Z,41.19
2023-07-01T05:24:13.542Z,41.23
2023-07-01T05:26:54.823Z,40.21
2023-07-01T05:29:35.050Z,40.27
2023-07-01T05:32:16.709Z,38.29
2023-07-01T05:35:02.479Z,38.22
2023-07-01T05:37:48.409Z,37.13
2023-07-01T05:40:29.584Z,35.91
2023-07-01T05:43:07.587Z,35.36
2023-07-01T05:48:42.407Z,33.63
2023-07-01T05:51:23.884Z,33.84
2023-07-01T05:54:04.852Z,34.82
2023-07-01T05:56:49.688Z,32.75
2023-07-01T05:59:30.656Z,33.03
2023-07-01T06:02:06.039Z,31.60
2023-07-01T06:05:03.753Z,31.27
2023-07-01T06:07:42.342Z,32.24
2023-07-01T06:10:25.598Z,31.32
2023-07-01T06:13:09.758Z,31.80
2023-07-01T06:15:50.825Z,32.57
2023-07-01T06:18:38.443Z,32.47
2023-07-01T06:21:18.045Z,31.54
2023-07-01T06:23:59.321Z,31.17
2023-07-01T06:26:42.352Z,29.40
2023-07-01T06:29:24.657Z,29.11
2023-07-01T06:32:07.942Z,30.59
2023-07-01T06:34:56.251Z,30.16
2023-07-01T06:37:42.613Z,29.48
2023-07-01T06:40:31.752Z,29.21
2023-07-01T06:43:27.219Z,30.00
2023-07-01T06:46:14.732Z,29.16
2023-07-01T06:48:50.931Z,27.34
2023-07-01T06:51:35.261Z,28.05
2023-07-01T06:54:20.629Z,27.78
2023-07-01T06:57:09.490Z,25.95
2023-07-01T06:59:53.609Z,25.18
2023-07-01T07:02:30.737Z,25.83
2023-07-01T07:05:24.826Z,26.42
2023-07-01T07:08:05.421Z,26.35
2023-07-01T07:10:50.332Z,24.82
2023-07-01T07:13:43.418Z,25.74
2023-07-01T07:16:39.015Z,25.48
2023-07-01T07:19:20.709Z,25.20
2023-07-01T07:22:00.097Z,25.31
2023-07-01T07:24:44.889Z,24.38
2023-07-01T07:27:26.358Z,24.94
2023-07-01T07:33:10.707Z,25.38
2023-07-01T07:35:52.027Z,24.84
2023-07-01T07:38:33.190Z,24.38
2023-07-01T07:41:14.710Z,25.23
2023-07-01T07:44:04.484Z,24.80
2023-07-01T07:46:49.867Z,23.69
2023-07-01T07:49:33.202Z,23.66
2023-07-01T07:52:14.113Z,24.15
2023-07-01T07:54:55.053Z,24.74
2023-07-01T07:57:36.142Z,24.97
2023-07-01T08:00:20.485Z,23.28
2023-07-01T08:03:04.947Z,22.48
2023-07-01T08:05:42.918Z,22.70
2023-07-01T08:08:26.868Z,21.60
2023-07-01T08:11:21.269Z,21.63
2023-07-01T08:14:11.822Z,23.36
2023-07-01T08:16:58.106Z,22.05
2023-07-01T08:19:37.787Z,21.25
2023-07-01T08:22:22.497Z,23.04
2023-07-01T08:25:03.422Z,22.08
2023-07-01T08:27:45.057Z,22.15
2023-07-01T08:30:36.125Z,22.27
2023-07-01T08:33:14.672Z,22.58
2023-07-01T08:36:14.735Z,23.29
2023-07-01T08:38:53.279Z,21.50
2023-07-01T08:41:30.049Z,21.34
2023-07-01T08:44:14.489Z,22.30
2023-07-01T08:46:58.124Z,22.20
2023-07-01T08:49:44.406Z,21.86
2023-07-01T08:52:27.380Z,21.49
2023-07-01T08:55:13.790Z,21.31
2023-07-01T08:57:55.756Z,20.85
2023-07-01T09:00:43.055Z,20.44
2023-07-01T09:03:24.987Z,20.38
2023-07-01T09:06:23.486Z,20.14
2023-07-01T09:09:03.050Z,20.95
2023-07-01T09:11:44.478Z,19.69
2023-07-01T09:14:24.877Z,19.86
2023-07-01T09:17:12.435Z,19.22
2023-07-01T09:20:09.943Z,19.49
2023-07-01T09:23:00.016Z,19.95
2023-07-01T09:25:41.251Z,20.27
2023-07-01T09:28:33.706Z,20.90
2023-07-01T09:31:13.195Z,19.90
2023-07-01T09:34:12.742Z,19.98
2023-07-01T09:37:00.671Z,21.06
2023-07-01T09:39:48.038Z,20.68
2023-07-01T09:42:29.047Z,19.64
2023-07-01T09:45:16.560Z,19.02
2023-07-01T09:48:01.050Z,19.29
2023-07-01T09:50:50.610Z,19.89
2023-07-01T09:53:36.884Z,21.19
2023-07-01T09:56:18.263Z,20.55
2023-07-01T09:59:00.602Z,22.12
2023-07-01T10:01:40.066Z,21.13
2023-07-01T10:04:18.418Z,19.61
2023-07-01T10:13:23.909Z,19.84
2023-07-01T10:16:03.887Z,19.92
2023-07-01T10:18:48.400Z,19.57
2023-07-01T10:21:31.203Z,19.95
2023-07-01T10:24:12.114Z,20.12
2023-07-01T10:26:56.175Z,18.80
2023-07-01T10:30:09.501Z,18.64
2023-07-01T10:32:55.924Z,20.08
2023-07-01T10:35:52.108Z,19.01
2023-07-01T10:38:46.013Z,20.09
2023-07-01T10:41:54.975Z,19.91
2023-07-01T10:44:33.378Z,19.68
2023-07-01T10:47:24.675Z,19.87
2023-07-01T10:50:09.123Z,21.11
2023-07-01T10:53:05.325Z,19.64
2023-07-01T10:56:03.047Z,19.95
2023-07-01T10:58:45.298Z,19.13
2023-07-01T11:01:48.887Z,18.42
2023-07-01T11:04:49.464Z,19.70
2023-07-01T11:07:38.043Z,18.84
2023-07-01T11:10:19.046Z,19.36
2023-07-01T11:13:11.398Z,19.91
2023-07-01T11:16:10.082Z,19.73
2023-07-01T11:18:55.538Z,21.54
2023-07-01T11:21:36.387Z,20.03
2023-07-01T11:24:16.588Z,20.76
2023-07-01T11:27:07.697Z,19.87
2023-07-01T11:29:49.421Z,20.91
2023-07-01T11:32:30.230Z,18.82
2023-07-01T11:35:17.539Z,19.21
2023-07-01T11:37:58.473Z,19.83
2023-07-01T11:40:49.315Z,20.99
2023-07-01T11:43:28.686Z,19.63
2023-07-01T11:46:34.128Z,18.76
2023-07-01T11:49:28.205Z,19.23
2023-07-01T11:52:22.727Z,20.78
2023-07-01T11:55:04.255Z,19.47
2023-07-01T12:00:47.900Z,20.87
2023-07-01T12:03:28.259Z,19.23
2023-07-01T12:06:24.756Z,19.06
2023-07-01T12:09:12.120Z,19.32
2023-07-01T12:12:23.430Z,20.00
2023-07-01T12:15:07.372Z,19.84
2023-07-01T12:17:48.722Z,21.41
2023-07-01T12:20:32.278Z,21.57
2023-07-01T12:23:36.388Z,21.99
2023-07-01T12:26:25.446Z,21.74
2023-07-01T12:29:00.988Z,21.78
2023-07-01T12:31:47.223Z,21.21
2023-07-01T12:34:26.285Z,21.60
2023-07-01T12:37:18.462Z,21.80
2023-07-01T12:40:06.572Z,22.36
2023-07-01T12:42:52.617Z,22.78
2023-07-01T12:45:34.305Z,21.16
2023-07-01T12:48:26.210Z,20.27
2023-07-01T12:51:06.632Z,19.76
2023-07-01T12:53:46.252Z,22.30
2023-07-01T12:56:26.480Z,19.11
2023-07-01T12:59:23.044Z,18.80
2023-07-01T13:02:10.380Z,19.57
2023-07-01T13:04:45.762Z,18.88
2023-07-01T13:07:35.464Z,19.63
2023-07-01T13:10:14.808Z,19.20
2023-07-01T13:13:00.192Z,19.66
2023-07-01T13:15:48.780Z,18.40
2023-07-01T13:18:32.174Z,18.85
2023-07-01T13:21:09.997Z,17.82
2023-07-01T13:23:57.837Z,19.75
2023-07-01T13:26:49.643Z,18.21
2023-07-01T13:29:33.214Z,17.56
2023-07-01T13:32:12.444Z,18.08
2023-07-01T13:34:57.385Z,17.91
2023-07-01T13:37:38.348Z,18.19
2023-07-01T13:40:28.379Z,18.71
2023-07-01T13:43:07.277Z,16.97
2023-07-01T13:45:49.403Z,16.85
2023-07-01T13:48:39.700Z,17.43
2023-07-01T13:51:23.785Z,18.32
2023-07-01T13:54:21.527Z,18.84
2023-07-01T13:57:03.747Z,19.92
2023-07-01T13:59:47.603Z,18.85
2023-07-01T14:02:26.050Z,17.85
2023-07-01T14:05:16.447Z,18.87
2023-07-01T14:08:01.672Z,19.06
2023-07-01T14:10:46.320Z,19.47
2023-07-01T14:13:31.385Z,20.22
2023-07-01T14:16:21.164Z,19.28
2023-07-01T14:19:08.492Z,18.66
2023-07-01T14:21:50.401Z,19.40
2023-07-01T14:24:28.101Z,17.90
2023-07-01T14:27:16.836Z,18.58
2023-07-01T14:33:03.122Z,17.53
2023-07-01T14:35:47.461Z,20.04
2023-07-01T14:38:30.441Z,20.67
2023-07-01T14:41:02.270Z,21.31
2023-07-01T14:46:58.685Z,22.60
2023-07-01T14:49:37.137Z,22.43
2023-07-01T14:52:31.722Z,23.50
2023-07-01T14:55:17.412Z,23.24
2023-07-01T14:57:52.273Z,24.16
2023-07-01T15:00:30.762Z,25.58
2023-07-01T15:03:15.971Z,26.22
2023-07-01T15:05:53.171Z,25.88
2023-07-01T15:08:28.596Z,25.73
2023-07-01T15:11:12.789Z,25.55
2023-07-01T15:13:48.251Z,26.13
2023-07-01T15:16:24.260Z,25.60
2023-07-01T15:18:56.511Z,26.87
2023-07-01T15:21:44.108Z,25.77
2023-07-01T15:24:16.842Z,25.86
2023-07-01T15:26:52.322Z,26.09
2023-07-01T15:29:32.517Z,26.70
2023-07-01T15:32:11.869Z,26.47
2023-07-01T15:34:52.429Z,26.67
2023-07-01T15:37:34.690Z,26.51
2023-07-01T15:40:12.880Z,26.62
2023-07-01T15:42:48.746Z,27.26
2023-07-01T15:45:32.085Z,27.82
2023-07-01T15:48:17.452Z,27.62
2023-07-01T15:50:50.443Z,27.68
2023-07-01T15:53:43.227Z,27.50
2023-07-01T15:56:20.013Z,27.38
2023-07-01T15:58:52.621Z,27.27
2023-07-01T16:01:32.071Z,27.35
2023-07-01T16:04:16.766Z,27.84
2023-07-01T16:07:01.885Z,28.61
2023-07-01T16:09:51.051Z,28.42
2023-07-01T16:12:47.284Z,28.27
2023-07-01T16:15:26.430Z,28.43
2023-07-01T16:18:30.419Z,27.66
2023-07-01T16:21:13.819Z,28.42
2023-07-01T16:24:10.319Z,28.85
2023-07-01T16:26:43.490Z,29.49
2023-07-01T16:29:16.621Z,28.36
2023-07-01T16:31:51.377Z,28.44
2023-07-01T16:34:32.649Z,28.16
2023-07-01T16:37:08.214Z,28.28
2023-07-01T16:39:52.977Z,28.76
2023-07-01T16:42:40.144Z,30.47
2023-07-01T16:45:39.334Z,28.91
2023-07-01T16:48:27.475Z,29.52
2023-07-01T16:51:09.225Z,28.32
2023-07-01T16:53:55.050Z,28.98
2023-07-01T16:56:51.250Z,28.90
2023-07-01T16:59:47.931Z,28.70
2023-07-01T17:02:36.074Z,29.99
2023-07-01T17:05:15.423Z,30.42
2023-07-01T17:07:50.936Z,30.07
2023-07-01T17:10:37.637Z,31.89
2023-07-01T17:13:37.730Z,32.85
2023-07-01T17:16:16.046Z,32.98
2023-07-01T17:18:57.633Z,32.65
2023-07-01T17:21:45.932Z,32.61
2023-07-01T17:24:27.866Z,33.08
2023-07-01T17:27:12.710Z,33.71
2023-07-01T17:29:51.812Z,33.45
2023-07-01T17:32:42.635Z,33.69
2023-07-01T17:35:18.584Z,33.32
2023-07-01T17:38:02.084Z,33.34
2023-07-01T17:40:37.622Z,33.73
2023-07-01T17:43:24.614Z,33.24
2023-07-01T17:46:02.034Z,33.24
2023-07-01T17:48:46.602Z,33.78
2023-07-01T17:51:30.235Z,34.35
2023-07-01T17:54:11.982Z,34.66
2023-07-01T17:56:54.335Z,34.71
2023-07-01T17:59:33.325Z,34.95
2023-07-01T18:02:17.419Z,35.40
2023-07-01T18:05:03.492Z,35.60
2023-07-01T18:07:45.662Z,35.73
2023-07-01T18:10:30.047Z,35.54
2023-07-01T18:13:08.251Z,36.36
2023-07-01T18:15:49.698Z,35.84
2023-07-01T18:18:22.608Z,36.37
2023-07-01T18:21:05.130Z,35.99
2023-07-01T18:23:54.476Z,35.46
2023-07-01T18:26:36.336Z,35.06
2023-07-01T18:29:27.998Z,34.37
2023-07-01T18:32:02.069Z,35.01
2023-07-01T18:34:47.895Z,34.30
2023-07-01T18:37:28.354Z,34.31
2023-07-01T18:40:00.815Z,34.55
2023-07-01T18:42:50.123Z,34.93
2023-07-01T18:45:27.680Z,34.33
2023-07-01T18:48:20.361Z,33.51
2023-07-01T18:51:01.897Z,33.47
2023-07-01T18:53:47.381Z,33.74
2023-07-01T18:56:22.827Z,34.16
2023-07-01T18:59:02.204Z,33.83
2023-07-01T19:01:41.487Z,33.36
2023-07-01T19:04:32.279Z,33.88
2023-07-01T19:07:05.046Z,34.49
2023-07-01T19:09:41.103Z,34.65
2023-07-01T19:12:21.465Z,34.47
2023-07-01T19:15:07.042Z,34.62
2023-07-01T19:17:45.012Z,35.29
2023-07-01T19:20:57.675Z,34.88
2023-07-01T19:23:46.502Z,34.86
2023-07-01T19:26:21.875Z,35.15
2023-07-01T19:29:07.251Z,35.48
2023-07-01T19:31:52.131Z,35.57
2023-07-01T19:34:36.535Z,35.78
2023-07-01T19:37:22.173Z,35.55
2023-07-01T19:40:04.604Z,36.71
2023-07-01T19:42:49.459Z,35.67
2023-07-01T19:45:25.202Z,35.11
2023-07-01T19:48:07.300Z,35.76
2023-07-01T19:50:50.759Z,35.48
2023-07-01T19:53:33.104Z,37.04
2023-07-01T19:56:19.971Z,37.15
2023-07-01T19:59:03.374Z,36.41
2023-07-01T20:01:46.080Z,36.36
2023-07-01T20:04:30.856Z,38.37
2023-07-01T20:07:19.948Z,38.86
2023-07-01T20:10:12.461Z,39.10
2023-07-01T20:12:58.773Z,39.12
2023-07-01T20:15:44.020Z,40.90
2023-07-01T20:18:22.364Z,40.37
2023-07-01T20:21:03.197Z,40.65
2023-07-01T20:23:43.589Z,39.39
2023-07-01T20:26:30.074Z,40.02
2023-07-01T20:29:15.375Z,39.88
2023-07-01T20:32:10.771Z,37.47
2023-07-01T20:34:58.599Z,37.68
2023-07-01T20:37:39.640Z,37.93
2023-07-01T20:40:24.002Z,38.77
2023-07-01T20:43:44.478Z,38.58
2023-07-01T20:46:28.962Z,38.87
2023-07-01T20:52:05.921Z,38.76
2023-07-01T20:54:40.999Z,38.47
2023-07-01T20:57:29.898Z,38.81
2023-07-01T21:00:13.707Z,38.83
2023-07-01T21:02:51.686Z,39.59
2023-07-01T21:05:38.881Z,41.48
2023-07-01T21:08:23.889Z,41.32
2023-07-01T21:11:12.726Z,41.97
2023-07-01T21:14:01.272Z,42.06
2023-07-01T21:16:51.879Z,41.19
2023-07-01T21:19:46.532Z,41.50
2023-07-01T21:25:39.980Z,41.37
2023-07-01T21:28:16.418Z,41.25
2023-07-01T21:31:05.750Z,41.44
2023-07-01T21:33:41.423Z,41.76
2023-07-01T21:36:22.766Z,42.27
2023-07-01T21:39:10.390Z,42.48
2023-07-01T21:42:04.232Z,42.13
2023-07-01T21:45:02.584Z,42.43
2023-07-01T21:51:17.239Z,41.75
2023-07-01T21:54:02.851Z,42.30
2023-07-01T21:56:52.595Z,42.72
2023-07-01T21:59:33.933Z,42.46
2023-07-01T22:02:31.121Z,42.10
2023-07-01T22:05:18.278Z,42.20
2023-07-01T22:07:59.257Z,42.49
2023-07-01T22:10:56.991Z,42.92
2023-07-01T22:13:41.085Z,42.74
2023-07-01T22:16:24.222Z,42.63
2023-07-01T22:19:02.137Z,42.92
2023-07-01T22:21:48.684Z,42.81
2023-07-01T22:24:35.038Z,43.52
2023-07-01T22:27:18.674Z,42.77
2023-07-01T22:30:04.194Z,43.24
2023-07-01T22:32:48.237Z,43.39
2023-07-01T22:35:29.109Z,43.51
2023-07-01T22:38:08.162Z,42.87
2023-07-01T22:41:00.869Z,43.44
2023-07-01T22:43:48.260Z,43.41
2023-07-01T22:46:35.999Z,43.76
2023-07-01T22:49:16.850Z,44.05
2023-07-01T22:51:59.017Z,43.48
2023-07-01T22:54:54.642Z,44.27
2023-07-01T22:57:40.403Z,44.53
2023-07-01T23:00:28.863Z,44.05
2023-07-01T23:03:15.980Z,44.01
2023-07-01T23:06:01.581Z,43.87
2023-07-01T23:08:44.510Z,44.83
2023-07-01T23:11:23.161Z,44.87
2023-07-01T23:14:10.200Z,45.60
2023-07-01T23:16:54.735Z,46.17
2023-07-01T23:19:41.088Z,45.70
2023-07-01T23:25:23.539Z,46.81
2023-07-01T23:28:11.289Z,47.48
2023-07-01T23:31:06.840Z,47.67
2023-07-01T23:33:44.956Z,47.20
2023-07-01T23:36:23.301Z,47.62
2023-07-01T23:42:07.182Z,48.29
2023-07-01T23:44:52.268Z,48.27
2023-07-01T23:47:45.854Z,47.74
2023-07-01T23:50:31.193Z,47.48
2023-07-01T23:53:12.075Z,48.16
2023-07-01T23:55:56.865Z,47.75
2023-07-01T23:58:40.765Z,47.53
